الصفحة الرئيسية
METAR-TAF:

METAR-TAF

مطار :

ماراكايبو, فنزويلا

دائرة عرض: 10-34N, خط طول: 071-44W, ارتفاع: 66 متر

مراقبة الطقس الحالي

تاريخ ووقت الإصدار 27 دقيقة قبل الساعة 15:03UTC
ريح 9 عقدة من الشرق/الشمال الشرقي
درجة الحرارة 30°درجة مئوية
الرطوبة 49%
ضغط 1016 hPa

METAR: SVMC 011503Z AUTO 07009KT NCD 30/18 Q1016

زمن: 11:30 (15:30 UTC)

توقعات

تاريخ ووقت الإصدار 5ساعات و 30 دقيقة قبل الساعة 10:00UTC
التوقعات صالحة من01 الساعة 12 UTC إلى 02 الساعة 12 UTC
ريح عقدة من الشمال
الرؤية 10 كم أو أكثر
غيوم قليلة على ارتفاع 1300 قدم
أصبح
من 01 الساعة 16 UTC إلى 01 الساعة 22 UTC
ريح 8 عقدة من الشرق
غيوم متفرقة على ارتفاع 1300 قدم

TAF: SVMC 011000Z 0112/0212 00000KT 9999 FEW013 TX35/0119Z TN24/0108Z BECMG 0116/0122 08008KT SCT013

أرصاد الطقس والتوقعات من أكثر من 4000 مطار (تقارير الطقس للمطار METAR والتنبؤ بالطقس بالمطارTAF).

المحطات المتاحة هي النقط الصفراء والحمراء على الخريطة.

حرك المؤشر فوق النقطة لمعرفة اسم المحطة.

ثم انقر لمعرفة أرصاد وتوقعات الطقس.

لتغيير الخارطة: اضغط على الأزرار الخضراء مع رمز الصليب الأسود للتكبير. على الزر الأخضر مع شرطة للتصغير، أو على الأسهم الخضراء للخرائط المجاورة.


METAR-TAF: